This is the latest recevied weather packets stored in our database for station/object LRIA. If no packets are shown the sender has not sent any weather packets the latest 10 day(s).
| Time | Temp. | Humidity | Pressure | Rain* | Wind** | Luminosity | Snow |
|---|---|---|---|---|---|---|---|
| 1777979004 | 25° C | 28% | 1014 hPa | - | - | - | - |
| 1777978104 | 23.89° C | 31% | 1014 hPa | - | - | - | - |
| 1777977205 | 23.89° C | 31% | 1014 hPa | - | - | - | - |
| 1777976304 | 23.89° C | 29% | 1014 hPa | - | - | - | - |
| 1777975404 | 23.89° C | 29% | 1014 hPa | - | - | - | - |
| 1777974505 | 23.89° C | 31% | 1015 hPa | - | - | - | - |
| 1777973603 | 23.89° C | 31% | 1015 hPa | - | - | - | - |
| 1777972703 | 22.78° C | 36% | 1015 hPa | - | - | - | - |
| 1777971803 | 22.78° C | 36% | 1015 hPa | - | - | - | - |
| 1777970904 | 22.22° C | 36% | 1015 hPa | - | - | - | - |
| 1777970004 | 22.22° C | 36% | 1015 hPa | - | - | - | - |
| 1777969104 | 21.11° C | 35% | 1015 hPa | - | - | - | - |
| 1777968204 | 21.11° C | 35% | 1015 hPa | - | - | - | - |
| 1777967320 | 18.89° C | 43% | 1015 hPa | - | - | - | - |
| 1777966403 | 18.89° C | 43% | 1015 hPa | - | - | - | - |
| 1777965503 | 17.78° C | 46% | 1015 hPa | - | - | - | - |
| 1777964603 | 17.78° C | 46% | 1015 hPa | - | - | - | - |
| 1777963703 | 16.11° C | 52% | 1015 hPa | - | - | - | - |
| 1777962804 | 16.11° C | 52% | 1015 hPa | - | - | - | - |
| 1777961903 | 15° C | 51% | 1015 hPa | - | - | - | - |
| 1777961004 | 15° C | 51% | 1015 hPa | - | - | - | - |
| 1777960103 | 13.89° C | 55% | 1015 hPa | - | - | - | - |
| 1777959204 | 13.89° C | 55% | 1015 hPa | - | - | - | - |
| 1777958303 | 12.78° C | 55% | 1015 hPa | - | - | - | - |
| 1777957403 | 12.78° C | 55% | 1015 hPa | - | - | - | - |
* Rain since midnight (hover to see other rain measurements)
** Current wind speed in m/s (hover to see current wind gust speed)